Pagina principală
METAR-TAF:

METAR-TAF

Aeroporturi :

Cloncurry, Australia

Latitudine: 20-40-07S, longitudine: 140-30-16E, elevație: 188 m

Observații meteo curente

Raportul a fost făcut în urmă cu 1 oră și 4 de minute, la 09:00 UTC
Vânt 5 kt de la Est/Sud-est
Temperatură 18°C
Umiditate 34%
Presiune 1018 hPa
Vizibilitate de 10 km sau mai mult

METAR: YCCY 260900Z AUTO 12005KT 9999 // NCD 18/02 Q1018

Ora: 20:04 (10:04 UTC)


TAF: lipsă

Observații și prognoze meteo pentru peste 4.000 de aeroporturi (rapoarte METAR și TAF).

Stațiile disponibile sunt reprezentate pe hartă prin puncte galbene și roșii.

Țineți indicatorul mouse-ului pe punctul dorit pentru a vedea denumirea stației.

Apoi, faceți clic pentru a vedea observațiile și prognozele meteorologice.

Pentru a schimba harta: Pentru mărire, faceți clic pe butoanele verzi cu cruce neagră; pentru micșorare, pe butonul verde cu o liniuță; pentru hărți învecinate, pe săgețile verzi.


METAR-TAF: